Terminal Aerodrome Forecast
Issued by NWS

Home | Current Version | Previous Version | Text Only | Print | Product List | Glossary On
Versions: 1 2 3 4 5 6 7 8 9 10 11 12 13 14 15 16 17 18 19 20 21 22 23 24
000
FTUS45 KREV 230500
TAFRNO
TAF
KRNO 230523Z 2306/2406 28006KT P6SM SCT140 BKN200
     FM231100 VRB04KT P6SM SCT120 BKN200
     FM232000 24009G17KT P6SM SCT100 OVC160
     FM240100 29008G15KT P6SM SCT080 OVC140=

USA.gov is the U.S. government's official web portal to all federal, state and local government web resources and services.